Time;durP1;ratioP1;P1;durP2;ratioP2;P2;SDS_P1;SDS_P2;PMS_P1;PMS_P2;Temp;Humidity;BMP_temperature;BMP_pressure;BME280_temperature;BME280_humidity;BME280_pressure;Samples;Min_cycle;Max_cycle;Signal;HPM_P1;HPM_P2
2022/04/11 00:04:18;;;;;;;7.87;6.20;;;6.10;99.90;;;;;;10370149;28;20748;-78
2022/04/11 00:09:21;;;;;;;7.30;6.60;;;6.10;99.90;;;;;;10367492;28;20202;-80
2022/04/11 00:14:24;;;;;;;6.27;5.77;;;6.10;99.90;;;;;;10359921;28;20219;-80
2022/04/11 00:19:27;;;;;;;7.10;6.50;;;6.00;99.90;;;;;;10365999;28;20191;-79
2022/04/11 00:24:29;;;;;;;7.50;6.90;;;6.00;99.90;;;;;;10383891;28;20702;-79
2022/04/11 00:29:32;;;;;;;7.40;6.80;;;6.00;99.90;;;;;;10385220;28;20199;-80
2022/04/11 00:34:36;;;;;;;6.63;6.03;;;5.90;99.90;;;;;;10381271;28;20215;-80
2022/04/11 00:39:39;;;;;;;7.67;7.07;;;5.90;99.90;;;;;;10368452;28;20210;-80
2022/04/11 00:44:45;;;;;;;7.07;6.57;;;5.90;99.90;;;;;;10392194;28;20289;-80
2022/04/11 00:49:48;;;;;;;7.43;6.63;;;5.90;99.90;;;;;;10384093;28;20203;-79
2022/04/11 00:54:51;;;;;;;7.60;6.90;;;5.90;99.90;;;;;;10387198;28;20230;-81
2022/04/11 00:59:56;;;;;;;7.50;6.93;;;5.80;99.90;;;;;;10344740;28;20214;-80
2022/04/11 01:04:58;;;;;;;7.63;6.93;;;5.80;99.90;;;;;;10367605;28;20222;-78
2022/04/11 01:10:00;;;;;;;7.37;6.87;;;5.80;99.90;;;;;;10376179;28;20214;-78
2022/04/11 01:15:04;;;;;;;7.70;7.00;;;5.70;99.90;;;;;;10374044;28;20840;-78
2022/04/11 01:20:11;;;;;;;9.13;7.30;;;5.70;99.90;;;;;;10374948;28;20205;-78
2022/04/11 01:25:16;;;;;;;7.90;7.27;;;5.70;99.90;;;;;;10374591;28;20597;-78
2022/04/11 01:30:20;;;;;;;7.97;7.30;;;5.70;99.90;;;;;;10356999;28;20201;-78
2022/04/11 01:35:25;;;;;;;8.03;7.33;;;5.60;99.90;;;;;;10358425;28;20218;-78
2022/04/11 01:40:33;;;;;;;7.90;7.30;;;5.60;99.90;;;;;;10356001;28;20670;-78
2022/04/11 01:45:35;;;;;;;9.33;7.70;;;5.50;99.90;;;;;;10374583;28;20226;-78
2022/04/11 01:50:37;;;;;;;7.63;6.93;;;5.50;99.90;;;;;;10373655;28;20991;-78
2022/04/11 01:55:41;;;;;;;8.20;7.30;;;5.50;99.90;;;;;;10373261;28;20225;-80
2022/04/11 02:00:47;;;;;;;8.20;7.50;;;5.50;99.90;;;;;;10368855;28;20217;-78
2022/04/11 02:05:49;;;;;;;8.40;7.67;;;5.50;99.90;;;;;;10388586;28;20225;-77
2022/04/11 02:10:53;;;;;;;8.13;7.43;;;5.50;99.90;;;;;;10393607;28;20190;-80
2022/04/11 02:15:56;;;;;;;7.63;7.00;;;5.50;99.90;;;;;;10364086;28;20313;-80
2022/04/11 02:20:58;;;;;;;7.97;7.27;;;5.50;99.90;;;;;;10377345;28;20776;-78
2022/04/11 02:26:02;;;;;;;8.50;7.80;;;5.60;99.90;;;;;;10389516;28;20219;-79
2022/04/11 02:31:04;;;;;;;8.03;7.33;;;5.60;99.90;;;;;;10356826;28;20198;-78
2022/04/11 02:36:07;;;;;;;8.53;7.73;;;5.60;99.90;;;;;;10373780;28;20211;-78
2022/04/11 02:41:11;;;;;;;9.13;8.27;;;5.70;99.90;;;;;;10355982;28;20222;-78
2022/04/11 02:46:22;;;;;;;8.23;7.60;;;5.80;99.90;;;;;;10372614;28;20219;-78
2022/04/11 02:51:24;;;;;;;8.43;7.73;;;5.80;99.90;;;;;;10372165;28;20202;-79
2022/04/11 02:56:37;;;;;;;9.53;8.10;;;5.90;99.90;;;;;;10375110;28;20222;-78
2022/04/11 03:01:40;;;;;;;7.20;6.60;;;6.00;99.90;;;;;;10375824;28;20238;-79
2022/04/11 03:06:44;;;;;;;9.53;7.60;;;6.00;99.90;;;;;;10373492;28;20264;-78
2022/04/11 03:11:48;;;;;;;12.10;9.33;;;6.00;99.90;;;;;;10372429;28;20191;-79
2022/04/11 03:16:52;;;;;;;8.70;7.90;;;6.00;99.90;;;;;;10372188;28;20222;-79
2022/04/11 03:21:54;;;;;;;9.07;8.10;;;6.00;99.90;;;;;;10371437;28;20704;-78
2022/04/11 03:26:58;;;;;;;9.33;8.53;;;6.10;99.90;;;;;;10373303;28;20210;-79
2022/04/11 03:32:06;;;;;;;8.80;8.00;;;6.10;99.90;;;;;;10388744;28;20203;-78
2022/04/11 03:37:12;;;;;;;10.70;9.60;;;6.10;99.90;;;;;;10371029;28;20616;-79
2022/04/11 03:42:21;;;;;;;8.47;7.70;;;6.10;99.90;;;;;;10378530;28;20227;-78
2022/04/11 03:47:24;;;;;;;9.07;7.33;;;6.00;99.90;;;;;;10379365;28;20222;-78
2022/04/11 03:52:26;;;;;;;8.00;7.30;;;6.00;99.90;;;;;;10379683;28;20673;-79
2022/04/11 03:57:33;;;;;;;8.23;7.50;;;6.00;99.90;;;;;;10470818;22;20229;-83
2022/04/11 04:02:37;;;;;;;8.80;7.90;;;5.90;99.90;;;;;;10449906;28;20428;-83
2022/04/11 04:07:40;;;;;;;12.70;11.50;;;5.90;99.90;;;;;;10442248;28;20216;-83
2022/04/11 04:12:47;;;;;;;10.90;9.80;;;5.80;99.90;;;;;;10433329;28;20247;-83
2022/04/11 04:17:56;;;;;;;15.10;13.00;;;5.80;99.90;;;;;;10454138;28;20218;-82
2022/04/11 04:22:59;;;;;;;9.47;8.57;;;5.80;99.90;;;;;;10439906;28;20689;-82
2022/04/11 04:33:39;;;;;;;8.83;8.03;;;5.70;99.90;;;;;;10424368;28;20597;-83
2022/04/11 04:38:44;;;;;;;8.70;8.00;;;5.60;99.90;;;;;;10446198;28;20254;-83
2022/04/11 04:43:48;;;;;;;8.43;7.50;;;5.60;99.90;;;;;;10425225;28;20222;-84
2022/04/11 04:48:52;;;;;;;8.83;8.07;;;5.60;99.90;;;;;;10447561;28;20247;-80
2022/04/11 04:53:58;;;;;;;8.90;8.20;;;5.60;99.90;;;;;;10442355;28;20297;-82
2022/04/11 04:59:04;;;;;;;10.30;9.30;;;5.60;99.90;;;;;;10420543;28;20194;-82
2022/04/11 05:04:07;;;;;;;9.90;8.90;;;5.60;99.90;;;;;;10437246;28;20244;-81
2022/04/11 05:09:11;;;;;;;11.17;8.90;;;5.60;99.90;;;;;;10444029;28;20572;-85
2022/04/11 05:14:17;;;;;;;8.33;7.63;;;5.60;99.90;;;;;;10443857;28;20300;-84
2022/04/11 05:19:19;;;;;;;10.17;9.17;;;5.50;99.90;;;;;;10451395;28;20201;-84
2022/04/11 05:24:22;;;;;;;9.03;8.23;;;5.50;99.90;;;;;;10417270;28;20222;-86
2022/04/11 05:29:26;;;;;;;10.00;8.37;;;5.50;99.90;;;;;;10427972;28;20259;-86
2022/04/11 05:34:28;;;;;;;14.40;8.93;;;5.50;99.90;;;;;;10413308;28;20267;-85
2022/04/11 05:39:33;;;;;;;8.27;7.40;;;5.50;99.90;;;;;;10444194;28;20198;-85
2022/04/11 05:44:37;;;;;;;9.63;8.83;;;5.50;99.90;;;;;;10428934;28;20222;-85
2022/04/11 05:49:39;;;;;;;9.03;8.30;;;5.50;99.90;;;;;;10446282;28;20201;-84
2022/04/11 05:54:42;;;;;;;9.93;8.93;;;5.50;99.90;;;;;;10431834;28;20276;-84
2022/04/11 05:59:46;;;;;;;10.50;9.43;;;5.60;99.90;;;;;;10443028;28;20216;-84
2022/04/11 06:04:48;;;;;;;10.93;9.90;;;5.60;99.90;;;;;;10427947;28;20281;-84
2022/04/11 06:09:50;;;;;;;12.47;9.70;;;5.70;99.90;;;;;;10456418;28;20673;-84
2022/04/11 06:14:55;;;;;;;11.87;10.50;;;5.80;99.90;;;;;;10427913;28;20222;-84
2022/04/11 06:19:59;;;;;;;10.63;9.73;;;5.80;99.90;;;;;;10432929;28;20197;-85
2022/04/11 06:25:05;;;;;;;10.97;10.07;;;5.90;99.90;;;;;;10411904;28;20648;-85
2022/04/11 06:30:09;;;;;;;11.47;10.47;;;5.90;99.90;;;;;;10421486;28;20201;-85
2022/04/11 06:35:15;;;;;;;12.77;11.63;;;6.00;99.90;;;;;;10393372;28;20640;-84
2022/04/11 06:40:18;;;;;;;14.20;12.70;;;6.10;99.90;;;;;;10401166;28;20198;-84
2022/04/11 06:45:22;;;;;;;13.60;12.20;;;6.20;99.90;;;;;;10431299;28;20222;-85
2022/04/11 06:50:27;;;;;;;13.50;12.33;;;6.30;99.90;;;;;;10438756;28;20727;-85
2022/04/11 06:55:29;;;;;;;14.23;13.03;;;6.40;99.90;;;;;;10403094;28;20341;-84
2022/04/11 07:00:33;;;;;;;17.00;13.43;;;6.50;99.90;;;;;;10425193;28;20201;-84
2022/04/11 07:05:35;;;;;;;14.20;12.93;;;6.70;99.90;;;;;;10424882;28;20221;-86
2022/04/11 07:10:40;;;;;;;17.67;13.40;;;6.80;99.90;;;;;;10417397;28;20721;-84
2022/04/11 07:15:44;;;;;;;14.57;13.27;;;7.00;99.90;;;;;;10419595;28;20300;-85
2022/04/11 07:20:46;;;;;;;15.10;13.70;;;7.10;99.90;;;;;;10430225;28;20246;-86
2022/04/11 07:25:48;;;;;;;12.87;11.67;;;7.20;99.90;;;;;;10439980;28;20245;-86
2022/04/11 07:30:52;;;;;;;12.40;11.07;;;7.40;99.90;;;;;;10436983;28;20266;-86
2022/04/11 07:35:54;;;;;;;8.33;7.53;;;7.50;99.90;;;;;;10423553;28;20245;-87
2022/04/11 07:40:56;;;;;;;7.47;6.73;;;7.70;99.90;;;;;;10400284;28;20190;-86
2022/04/11 07:46:01;;;;;;;8.00;6.80;;;7.90;99.90;;;;;;10420566;28;20221;-86
2022/04/11 07:51:03;;;;;;;6.83;6.23;;;8.10;99.90;;;;;;10394963;28;20234;-85
2022/04/11 07:56:14;;;;;;;6.73;6.23;;;8.40;99.90;;;;;;10418023;28;20229;-84
2022/04/11 08:01:18;;;;;;;9.30;5.80;;;8.70;99.90;;;;;;10405147;28;20201;-85
2022/04/11 08:06:20;;;;;;;6.50;5.93;;;9.20;99.90;;;;;;10400882;28;20225;-86
2022/04/11 08:11:23;;;;;;;6.63;5.57;;;9.70;99.90;;;;;;10394874;28;20202;-85
2022/04/11 08:16:27;;;;;;;6.93;6.33;;;10.10;99.90;;;;;;10396572;28;20241;-84
2022/04/11 08:21:29;;;;;;;6.30;5.70;;;10.50;99.90;;;;;;10404936;28;20207;-83
2022/04/11 08:26:31;;;;;;;6.70;6.07;;;10.80;98.30;;;;;;10411843;28;20256;-84
2022/04/11 08:31:35;;;;;;;6.97;5.43;;;11.00;99.00;;;;;;10392885;28;20662;-85
2022/04/11 08:36:37;;;;;;;5.50;5.10;;;11.20;98.30;;;;;;10399554;28;20221;-85
2022/04/11 08:41:39;;;;;;;5.33;4.93;;;11.50;95.80;;;;;;10396000;28;20206;-86
2022/04/11 08:46:44;;;;;;;6.23;4.87;;;11.70;97.40;;;;;;10395726;28;20244;-86
2022/04/11 08:51:46;;;;;;;5.20;4.70;;;11.90;95.90;;;;;;10435332;28;20283;-85
2022/04/11 08:56:48;;;;;;;6.20;4.33;;;12.10;95.50;;;;;;10433648;28;20292;-84
2022/04/11 09:01:52;;;;;;;5.10;4.67;;;12.40;96.50;;;;;;10458333;28;20221;-84
2022/04/11 09:06:59;;;;;;;6.07;5.33;;;12.60;96.30;;;;;;10421251;28;20217;-85
2022/04/11 09:12:04;;;;;;;5.13;4.73;;;12.70;96.90;;;;;;10433054;28;20205;-84
2022/04/11 09:17:09;;;;;;;5.37;4.67;;;12.90;95.70;;;;;;10398416;28;20217;-83
2022/04/11 09:22:11;;;;;;;5.10;4.10;;;13.10;92.50;;;;;;10417939;28;20206;-82
2022/04/11 09:27:24;;;;;;;4.60;4.20;;;13.20;89.80;;;;;;10387633;28;20214;-83
2022/04/11 09:32:27;;;;;;;4.43;4.13;;;13.20;91.80;;;;;;10388602;28;20202;-83
2022/04/11 09:37:30;;;;;;;4.53;4.13;;;13.50;91.20;;;;;;10412416;28;20240;-84
2022/04/11 09:42:32;;;;;;;3.53;3.23;;;13.80;90.80;;;;;;10406276;28;20209;-84
2022/04/11 09:47:36;;;;;;;4.00;3.70;;;14.00;88.20;;;;;;10403182;28;20279;-84
2022/04/11 09:52:38;;;;;;;4.37;3.97;;;14.30;86.10;;;;;;10417322;28;20273;-84
2022/04/11 09:57:48;;;;;;;3.73;3.43;;;14.60;80.20;;;;;;10398260;28;20701;-87
2022/04/11 10:02:52;;;;;;;4.33;3.87;;;14.80;79.80;;;;;;10430863;28;20305;-85
2022/04/11 10:07:58;;;;;;;3.93;3.63;;;15.00;80.00;;;;;;10435468;28;20256;-84
2022/04/11 10:13:04;;;;;;;4.23;3.93;;;15.20;79.70;;;;;;10435794;28;20209;-85
2022/04/11 10:18:12;;;;;;;3.23;2.93;;;15.10;77.40;;;;;;10401791;28;20217;-83
2022/04/11 10:23:21;;;;;;;3.30;3.10;;;14.90;86.70;;;;;;10433786;28;20217;-85
2022/04/11 10:28:25;;;;;;;3.90;3.70;;;14.60;74.60;;;;;;10431405;28;20221;-85
2022/04/11 10:33:46;;;;;;;3.30;3.10;;;14.40;76.00;;;;;;10422140;28;20206;-85
2022/04/11 10:39:23;;;;;;;3.40;3.20;;;14.20;76.10;;;;;;10390050;28;20210;-86
2022/04/11 10:44:35;;;;;;;3.23;3.00;;;14.10;74.60;;;;;;10410904;28;20229;-85
2022/04/11 10:50:11;;;;;;;3.07;2.97;;;14.00;80.80;;;;;;10448541;28;20228;-85
2022/04/11 10:55:17;;;;;;;3.60;3.40;;;13.90;75.80;;;;;;10417929;28;20572;-84
2022/04/11 11:00:20;;;;;;;3.80;3.50;;;13.80;78.60;;;;;;10401164;28;20554;-85
2022/04/11 11:05:26;;;;;;;3.73;3.43;;;13.70;82.80;;;;;;10399294;28;20244;-86
2022/04/11 11:10:40;;;;;;;3.40;3.20;;;13.70;79.50;;;;;;10377323;28;20212;-84
2022/04/11 11:15:43;;;;;;;3.37;3.20;;;13.50;84.10;;;;;;10382101;28;20223;-84
2022/04/11 11:20:51;;;;;;;5.10;3.37;;;13.40;86.60;;;;;;10414371;28;20639;-84
2022/04/11 11:25:56;;;;;;;3.53;3.33;;;13.50;74.50;;;;;;10373804;28;20257;-84
2022/04/11 11:30:58;;;;;;;3.70;3.40;;;13.50;74.50;;;;;;10410415;28;20201;-84
2022/04/11 11:36:02;;;;;;;3.70;3.50;;;13.30;84.40;;;;;;10398372;28;20309;-84
2022/04/11 11:41:05;;;;;;;3.50;3.20;;;13.30;77.30;;;;;;10389005;28;20293;-84
2022/04/11 11:46:07;;;;;;;3.40;3.10;;;13.30;82.20;;;;;;10397564;28;20233;-84
2022/04/11 11:51:09;;;;;;;3.50;3.30;;;13.30;82.50;;;;;;10395403;28;20297;-83
2022/04/11 11:56:13;;;;;;;3.00;2.77;;;13.30;85.00;;;;;;10380311;28;20784;-84
2022/04/11 12:01:15;;;;;;;5.67;3.60;;;13.30;88.80;;;;;;10388330;28;20209;-83
2022/04/11 12:06:24;;;;;;;3.93;3.60;;;13.40;82.10;;;;;;10414860;28;20225;-84
2022/04/11 12:11:29;;;;;;;3.63;3.17;;;13.40;83.80;;;;;;10444903;28;20200;-84
2022/04/11 12:16:33;;;;;;;5.53;3.03;;;13.60;73.30;;;;;;10403229;28;20264;-83
2022/04/11 12:21:36;;;;;;;5.50;3.50;;;13.60;72.60;;;;;;10392064;28;20212;-84
2022/04/11 12:26:41;;;;;;;2.90;2.70;;;13.80;69.60;;;;;;10408430;28;20225;-84
2022/04/11 12:31:55;;;;;;;3.60;3.10;;;13.80;72.50;;;;;;10401576;28;20245;-83
2022/04/11 12:36:59;;;;;;;3.73;3.43;;;13.90;72.30;;;;;;10391178;28;20279;-84
2022/04/11 12:42:03;;;;;;;3.70;3.50;;;13.90;69.00;;;;;;10411444;28;20202;-84
2022/04/11 12:47:07;;;;;;;3.70;3.40;;;14.10;67.00;;;;;;10403793;28;20222;-84
2022/04/11 12:52:13;;;;;;;4.30;4.00;;;14.20;66.10;;;;;;10392804;28;20198;-85
2022/04/11 12:57:22;;;;;;;3.90;3.60;;;14.20;68.30;;;;;;10414301;28;20226;-85
2022/04/11 13:02:26;;;;;;;3.13;2.93;;;14.20;78.30;;;;;;10386540;28;20685;-85
2022/04/11 13:07:39;;;;;;;4.30;3.70;;;14.10;81.30;;;;;;10408449;28;20234;-85
2022/04/11 13:12:53;;;;;;;4.20;3.67;;;14.10;72.40;;;;;;10393423;28;20197;-85
2022/04/11 13:23:15;;;;;;;3.53;3.23;;;14.50;68.50;;;;;;10384650;28;20425;-85
2022/04/11 13:28:18;;;;;;;3.93;3.63;;;14.40;80.50;;;;;;10392139;28;20233;-85
2022/04/11 13:33:21;;;;;;;3.77;3.47;;;14.40;75.00;;;;;;10425633;28;20721;-85
2022/04/11 13:38:23;;;;;;;4.60;3.93;;;14.50;69.50;;;;;;10409450;28;20222;-85
2022/04/11 13:43:26;;;;;;;3.43;3.23;;;14.60;67.70;;;;;;10387999;28;20233;-85
2022/04/11 13:48:29;;;;;;;4.27;3.93;;;14.60;78.20;;;;;;10417472;28;20348;-85
2022/04/11 13:53:31;;;;;;;4.90;3.90;;;14.50;76.00;;;;;;10388061;28;20666;-86
2022/04/11 13:58:35;;;;;;;4.43;4.20;;;14.50;79.80;;;;;;10403855;28;20750;-85
2022/04/11 14:03:37;;;;;;;4.00;3.70;;;14.40;77.50;;;;;;10400759;28;20320;-85
2022/04/11 14:08:39;;;;;;;3.87;3.57;;;14.50;70.40;;;;;;10401057;28;20588;-85
2022/04/11 14:13:42;;;;;;;4.50;3.83;;;14.60;78.90;;;;;;10388333;28;20740;-85
2022/04/11 14:18:45;;;;;;;4.27;3.87;;;14.50;79.20;;;;;;10388678;28;20210;-86
2022/04/11 14:23:47;;;;;;;4.40;4.10;;;14.50;77.80;;;;;;10403182;28;20210;-85
2022/04/11 14:28:50;;;;;;;4.07;3.73;;;14.40;81.50;;;;;;10387122;28;20212;-86
2022/04/11 14:33:53;;;;;;;4.07;3.77;;;14.40;84.00;;;;;;10388720;28;20203;-86
2022/04/11 14:38:55;;;;;;;4.23;3.93;;;14.40;77.00;;;;;;10421017;28;20605;-86
2022/04/11 14:43:58;;;;;;;5.63;3.80;;;14.40;82.90;;;;;;10399047;28;20217;-86
2022/04/11 14:49:01;;;;;;;4.63;4.20;;;14.40;82.90;;;;;;10388930;28;20210;-86
2022/04/11 14:54:03;;;;;;;4.00;3.80;;;14.50;80.50;;;;;;10396960;28;20252;-86
2022/04/11 14:59:07;;;;;;;3.97;3.77;;;14.50;86.10;;;;;;10408059;28;20677;-85
2022/04/11 15:04:09;;;;;;;5.40;4.60;;;14.40;82.80;;;;;;10385530;28;20579;-86
2022/04/11 15:09:12;;;;;;;4.60;4.30;;;14.60;75.00;;;;;;10382362;28;20324;-86
2022/04/11 15:20:25;;;;;;;4.93;4.40;;;14.80;81.70;;;;;;10328873;28;20205;-86
2022/04/11 15:25:27;;;;;;;4.53;4.13;;;14.80;82.20;;;;;;10423465;28;20579;-86
2022/04/11 15:30:31;;;;;;;4.73;3.70;;;15.00;69.50;;;;;;10433004;28;20190;-86
2022/04/11 15:35:34;;;;;;;4.50;4.00;;;15.10;71.00;;;;;;10413607;28;20233;-86
2022/04/11 15:40:36;;;;;;;5.93;4.63;;;15.30;70.00;;;;;;10422309;28;20207;-86
2022/04/11 15:45:40;;;;;;;4.43;4.13;;;15.30;75.30;;;;;;10396526;28;20233;-86
2022/04/11 15:50:42;;;;;;;4.63;4.33;;;15.20;75.40;;;;;;10405447;28;20206;-85
2022/04/11 15:55:44;;;;;;;5.20;4.80;;;15.30;71.80;;;;;;10453425;28;20225;-84
2022/04/11 16:00:48;;;;;;;5.73;5.03;;;15.40;70.00;;;;;;10423255;28;20213;-85
2022/04/11 16:05:56;;;;;;;4.03;3.70;;;15.60;67.50;;;;;;10455437;28;20225;-84
2022/04/11 16:10:59;;;;;;;4.63;4.23;;;15.60;68.90;;;;;;10416759;28;20677;-85
2022/04/11 16:16:02;;;;;;;4.50;4.10;;;15.70;72.30;;;;;;10418925;28;20301;-85
2022/04/11 16:21:05;;;;;;;4.47;4.17;;;15.60;79.30;;;;;;10394030;28;20714;-84
2022/04/11 16:26:08;;;;;;;7.27;3.50;;;15.50;73.80;;;;;;10412006;28;20284;-84
2022/04/11 16:31:11;;;;;;;4.20;3.90;;;15.40;83.00;;;;;;10419619;28;20208;-84
2022/04/11 16:36:14;;;;;;;4.00;3.70;;;15.20;75.70;;;;;;10407039;28;20222;-85
2022/04/11 16:41:19;;;;;;;4.10;3.70;;;15.10;75.00;;;;;;10422326;28;20664;-85
2022/04/11 16:46:23;;;;;;;4.60;4.30;;;15.10;77.40;;;;;;10450774;28;20253;-84
2022/04/11 16:51:25;;;;;;;4.20;3.90;;;15.10;75.10;;;;;;10445819;28;20202;-85
2022/04/11 16:56:27;;;;;;;4.53;4.23;;;15.20;71.90;;;;;;10403246;28;20244;-84
2022/04/11 17:01:31;;;;;;;5.23;4.73;;;15.10;79.20;;;;;;10412002;28;20202;-84
2022/04/11 17:06:33;;;;;;;4.27;3.90;;;15.10;73.20;;;;;;10413997;28;20320;-83
2022/04/11 17:11:36;;;;;;;4.27;3.87;;;15.20;76.80;;;;;;10420604;28;20817;-83
2022/04/11 17:21:59;;;;;;;3.57;3.27;;;14.90;89.40;;;;;;10410196;28;20275;-83
2022/04/11 17:27:02;;;;;;;4.27;3.90;;;14.70;79.90;;;;;;10407269;28;20733;-85
2022/04/11 17:32:08;;;;;;;4.40;4.00;;;14.60;78.40;;;;;;10445463;28;20202;-84
2022/04/11 17:37:10;;;;;;;6.40;5.90;;;14.60;81.00;;;;;;10401425;28;20225;-84
2022/04/11 17:42:12;;;;;;;4.07;3.77;;;14.50;89.90;;;;;;10407727;28;20489;-84
2022/04/11 17:47:15;;;;;;;4.90;4.23;;;14.30;87.00;;;;;;10446900;28;20648;-82
2022/04/11 17:52:17;;;;;;;4.23;3.90;;;14.20;91.50;;;;;;10422594;28;20198;-84
2022/04/11 17:57:20;;;;;;;4.03;3.63;;;14.10;86.80;;;;;;10444942;28;20229;-82
2022/04/11 18:02:23;;;;;;;3.23;3.03;;;13.90;91.80;;;;;;10414378;28;20725;-83
2022/04/11 18:07:25;;;;;;;3.20;2.90;;;13.80;89.60;;;;;;10409644;28;20312;-84
2022/04/11 18:12:28;;;;;;;2.50;2.30;;;13.80;88.20;;;;;;10411571;28;20637;-84
2022/04/11 18:17:32;;;;;;;6.03;2.90;;;13.70;90.50;;;;;;10405197;28;20281;-82
2022/04/11 18:22:37;;;;;;;3.47;2.67;;;13.60;90.00;;;;;;10406302;28;20332;-88
2022/04/11 18:27:42;;;;;;;4.03;3.10;;;13.50;89.70;;;;;;10416358;28;20601;-87
2022/04/11 18:32:53;;;;;;;4.07;3.70;;;13.40;90.40;;;;;;10391687;28;20708;-87
2022/04/11 18:37:58;;;;;;;4.03;3.70;;;13.30;89.90;;;;;;10396880;28;20312;-86
2022/04/11 18:43:00;;;;;;;3.23;2.83;;;13.20;89.70;;;;;;10393446;28;20216;-89
2022/04/11 18:48:06;;;;;;;4.03;3.60;;;13.10;90.40;;;;;;10391491;28;20225;-88
2022/04/11 18:53:08;;;;;;;4.87;4.00;;;13.00;90.40;;;;;;10439189;28;20197;-88
2022/04/11 18:58:11;;;;;;;7.27;3.70;;;12.90;90.20;;;;;;10398611;28;20276;-89
2022/04/11 19:03:16;;;;;;;4.20;3.80;;;12.80;90.10;;;;;;10408746;28;20292;-85
2022/04/11 19:08:19;;;;;;;5.53;3.80;;;12.60;90.70;;;;;;10388559;28;20324;-85
2022/04/11 19:13:21;;;;;;;4.37;3.97;;;12.60;89.60;;;;;;10435698;28;20237;-85
2022/04/11 19:18:25;;;;;;;4.47;4.10;;;12.50;90.10;;;;;;10371803;28;20229;-85
2022/04/11 19:23:27;;;;;;;4.60;4.20;;;12.40;90.70;;;;;;10386303;28;20220;-86
2022/04/11 19:28:29;;;;;;;6.33;5.73;;;12.40;90.40;;;;;;10401360;28;20217;-84
2022/04/11 19:33:36;;;;;;;6.10;5.47;;;12.40;86.80;;;;;;10384272;28;20293;-85
2022/04/11 19:38:41;;;;;;;5.60;4.97;;;12.40;86.50;;;;;;10379710;28;20300;-88
2022/04/11 19:43:50;;;;;;;5.80;5.30;;;12.40;89.70;;;;;;10427487;28;20212;-90
2022/04/11 19:54:14;;;;;;;5.83;5.23;;;12.40;87.50;;;;;;10392896;28;20269;-85
2022/04/11 19:59:16;;;;;;;5.57;5.00;;;12.40;88.60;;;;;;10401412;28;20212;-85
2022/04/11 20:04:20;;;;;;;6.20;5.60;;;12.30;90.20;;;;;;10408585;28;20244;-84
2022/04/11 20:09:22;;;;;;;5.80;5.30;;;12.30;91.20;;;;;;10371656;28;20201;-85
2022/04/11 20:14:25;;;;;;;5.57;5.07;;;12.20;91.50;;;;;;10396328;28;20594;-85
2022/04/11 20:19:28;;;;;;;7.77;7.07;;;12.10;91.00;;;;;;10395295;28;20272;-86
2022/04/11 20:24:31;;;;;;;12.20;9.47;;;12.20;88.70;;;;;;10402464;28;20621;-86
2022/04/11 20:29:33;;;;;;;13.33;11.50;;;12.20;90.10;;;;;;10410551;28;20300;-86
2022/04/11 20:34:37;;;;;;;15.23;11.80;;;12.10;90.30;;;;;;10412007;28;20769;-86
2022/04/11 20:39:40;;;;;;;11.10;10.00;;;12.10;90.20;;;;;;10396850;28;20209;-84
2022/04/11 20:44:42;;;;;;;8.60;7.80;;;12.10;92.00;;;;;;10411347;28;20214;-86
2022/04/11 20:49:46;;;;;;;7.60;6.90;;;12.00;93.00;;;;;;10386574;28;20198;-87
2022/04/11 21:00:10;;;;;;;7.30;6.70;;;12.00;93.50;;;;;;10402401;28;20655;-87
2022/04/11 21:05:13;;;;;;;8.70;7.90;;;11.90;94.40;;;;;;10406835;28;20221;-87
2022/04/11 21:10:16;;;;;;;7.30;6.60;;;11.90;95.60;;;;;;10387074;28;20238;-85
2022/04/11 21:15:18;;;;;;;7.00;6.40;;;11.80;96.40;;;;;;10399796;28;20245;-89
2022/04/11 21:20:22;;;;;;;7.47;6.60;;;11.80;95.00;;;;;;10394768;28;20209;-87
2022/04/11 21:25:26;;;;;;;6.80;6.20;;;11.70;96.00;;;;;;10424993;28;20613;-86
2022/04/11 21:30:28;;;;;;;8.67;7.77;;;11.70;96.20;;;;;;10413838;28;20186;-86
2022/04/11 21:35:32;;;;;;;6.87;6.17;;;11.60;94.00;;;;;;10394322;28;20309;-86
2022/04/11 21:40:34;;;;;;;8.77;6.27;;;11.60;95.50;;;;;;10429001;28;20205;-87
2022/04/11 21:45:37;;;;;;;7.27;6.67;;;11.60;96.40;;;;;;10396982;28;20217;-86
2022/04/11 21:50:40;;;;;;;7.00;6.40;;;11.50;95.20;;;;;;10440671;28;20197;-86
2022/04/11 21:55:43;;;;;;;6.17;5.57;;;11.40;95.80;;;;;;10427748;22;20339;-81
2022/04/11 22:00:53;;;;;;;6.33;5.77;;;11.40;94.30;;;;;;10403439;28;20669;-81
2022/04/11 22:05:56;;;;;;;6.87;6.23;;;11.30;95.20;;;;;;10401410;28;20644;-80
2022/04/11 22:10:59;;;;;;;6.57;5.97;;;11.20;95.30;;;;;;10410326;28;20212;-80
2022/04/11 22:16:01;;;;;;;6.47;5.87;;;11.10;96.10;;;;;;10375267;28;20218;-80
2022/04/11 22:21:05;;;;;;;6.57;5.97;;;11.00;95.80;;;;;;10409263;28;20205;-80
2022/04/11 22:26:07;;;;;;;7.63;7.03;;;10.90;96.40;;;;;;10408496;28;20222;-79
2022/04/11 22:31:10;;;;;;;7.00;6.30;;;10.80;96.10;;;;;;10377521;28;20670;-82
2022/04/11 22:36:14;;;;;;;7.17;6.47;;;10.70;96.00;;;;;;10379798;28;20226;-79
2022/04/11 22:41:16;;;;;;;6.40;5.80;;;10.60;96.80;;;;;;10412475;28;20658;-81
2022/04/11 22:46:20;;;;;;;6.40;5.80;;;10.60;96.40;;;;;;10411411;28;20571;-80
2022/04/11 22:51:24;;;;;;;6.10;5.60;;;10.50;96.20;;;;;;10382196;28;20190;-80
2022/04/11 22:56:26;;;;;;;6.53;5.80;;;10.40;95.80;;;;;;10412620;28;20225;-82
2022/04/11 23:01:28;;;;;;;6.63;6.03;;;10.30;97.10;;;;;;10389884;28;20202;-81
2022/04/11 23:06:32;;;;;;;8.03;6.33;;;10.20;97.70;;;;;;10387206;28;20232;-82
2022/04/11 23:11:34;;;;;;;6.90;6.30;;;10.20;97.50;;;;;;10390417;28;20247;-79
2022/04/11 23:16:36;;;;;;;7.20;6.60;;;10.10;97.70;;;;;;10391869;28;20692;-80
2022/04/11 23:21:40;;;;;;;7.33;6.63;;;10.10;97.30;;;;;;10387277;28;20620;-79
2022/04/11 23:26:43;;;;;;;8.30;7.57;;;10.00;98.50;;;;;;10390151;28;20228;-81
2022/04/11 23:31:45;;;;;;;8.20;6.50;;;10.00;98.40;;;;;;10389702;28;20289;-81
2022/04/11 23:36:49;;;;;;;6.63;6.03;;;10.00;98.70;;;;;;10372756;28;20245;-79
2022/04/11 23:41:51;;;;;;;8.17;6.70;;;10.00;97.60;;;;;;10394940;28;20234;-81
2022/04/11 23:46:54;;;;;;;7.40;6.70;;;9.90;98.80;;;;;;10370947;28;20601;-81
2022/04/11 23:51:57;;;;;;;9.30;7.10;;;9.90;97.70;;;;;;10407851;28;20198;-81
2022/04/11 23:56:59;;;;;;;7.17;6.47;;;9.80;99.50;;;;;;10399388;28;20233;-81
